createdAt,value
2023-05-03T00:00:20.930Z,4.33
2023-05-03T00:04:24.239Z,3.80
2023-05-03T00:08:26.962Z,3.80
2023-05-03T00:12:29.671Z,4.07
2023-05-03T00:16:33.732Z,3.60
2023-05-03T00:20:36.812Z,3.87
2023-05-03T00:24:39.489Z,3.57
2023-05-03T00:28:42.885Z,4.20
2023-05-03T00:32:46.915Z,3.93
2023-05-03T00:36:49.681Z,3.87
2023-05-03T00:40:55.563Z,3.63
2023-05-03T00:44:58.324Z,3.50
2023-05-03T00:49:07.685Z,3.90
2023-05-03T00:53:10.490Z,4.23
2023-05-03T00:57:13.242Z,4.50
2023-05-03T01:01:16.598Z,3.90
2023-05-03T01:05:22.239Z,3.63
2023-05-03T01:09:32.402Z,4.27
2023-05-03T01:13:44.901Z,4.10
2023-05-03T01:17:52.470Z,4.63
2023-05-03T01:22:02.074Z,4.13
2023-05-03T01:26:20.182Z,4.10
2023-05-03T01:30:27.821Z,4.60
2023-05-03T01:34:38.092Z,3.93
2023-05-03T01:38:43.449Z,5.30
2023-05-03T01:42:48.553Z,6.30
2023-05-03T01:46:51.228Z,5.90
2023-05-03T01:50:54.597Z,5.13
2023-05-03T01:54:57.333Z,5.20
2023-05-03T01:59:01.619Z,5.97
2023-05-03T02:03:05.470Z,5.43
2023-05-03T02:07:08.211Z,5.57
2023-05-03T02:11:10.910Z,5.37
2023-05-03T02:15:14.992Z,5.00
2023-05-03T02:19:17.590Z,4.97
2023-05-03T02:23:20.249Z,5.20
2023-05-03T02:27:22.912Z,4.87
2023-05-03T02:31:27.421Z,6.22
2023-05-03T02:35:33.692Z,5.60
2023-05-03T02:39:36.671Z,5.37
2023-05-03T02:43:41.013Z,5.37
2023-05-03T02:47:45.310Z,5.00
2023-05-03T02:51:47.913Z,5.50
2023-05-03T02:55:50.776Z,5.50
2023-05-03T02:59:53.545Z,6.17
2023-05-03T03:03:58.877Z,5.33
2023-05-03T03:08:01.691Z,5.30
2023-05-03T03:12:06.855Z,6.43
2023-05-03T03:16:10.617Z,6.37
2023-05-03T03:20:15.007Z,5.67
2023-05-03T03:24:21.606Z,5.80
2023-05-03T03:28:26.237Z,7.37
2023-05-03T03:32:30.653Z,5.97
2023-05-03T03:36:37.946Z,5.47
2023-05-03T03:40:41.031Z,4.90
2023-05-03T03:44:43.843Z,4.67
2023-05-03T03:48:46.689Z,5.50
2023-05-03T03:52:51.140Z,6.00
2023-05-03T03:56:54.094Z,5.67
2023-05-03T04:00:57.917Z,6.57
2023-05-03T04:05:03.771Z,6.73
2023-05-03T04:09:08.003Z,7.10
2023-05-03T04:13:11.901Z,6.83
2023-05-03T04:17:15.802Z,6.10
2023-05-03T04:21:19.757Z,6.67
2023-05-03T04:25:25.585Z,6.33
2023-05-03T04:29:34.048Z,6.50
2023-05-03T04:33:37.014Z,5.90
2023-05-03T04:37:41.919Z,5.73
2023-05-03T04:41:47.507Z,6.27
2023-05-03T04:45:50.504Z,6.47
2023-05-03T04:49:58.612Z,7.07
2023-05-03T04:54:02.223Z,7.27
2023-05-03T04:58:07.164Z,7.87
2023-05-03T05:02:11.341Z,8.30
2023-05-03T05:06:14.087Z,7.67
2023-05-03T05:10:31.299Z,8.80
2023-05-03T05:14:35.424Z,8.97
2023-05-03T05:18:38.581Z,8.23
2023-05-03T05:22:44.376Z,27.23
2023-05-03T05:26:47.683Z,11.87
2023-05-03T05:30:54.760Z,8.67
2023-05-03T05:34:58.554Z,7.83
2023-05-03T05:39:04.226Z,6.53
2023-05-03T05:43:09.598Z,6.77
2023-05-03T05:47:16.595Z,7.13
2023-05-03T05:51:21.567Z,7.83
2023-05-03T05:55:24.847Z,7.83
2023-05-03T05:59:30.390Z,7.53
2023-05-03T06:03:36.161Z,6.50
2023-05-03T06:07:42.248Z,6.30
2023-05-03T06:11:44.960Z,7.07
2023-05-03T06:15:49.619Z,6.27
2023-05-03T06:19:53.614Z,5.80
2023-05-03T06:23:56.453Z,5.07
2023-05-03T06:28:01.227Z,4.57
2023-05-03T06:32:07.452Z,4.17
2023-05-03T06:36:11.998Z,3.87
2023-05-03T06:40:15.645Z,4.50
2023-05-03T06:44:18.320Z,3.43
2023-05-03T06:48:22.381Z,3.90
2023-05-03T06:52:26.538Z,3.63
2023-05-03T06:56:29.837Z,2.70
2023-05-03T07:00:32.657Z,3.20
2023-05-03T07:04:37.638Z,3.67
2023-05-03T07:08:41.682Z,2.97
2023-05-03T07:12:44.356Z,2.63
2023-05-03T07:16:47.225Z,2.37
2023-05-03T07:20:50.062Z,1.87
2023-05-03T07:24:54.932Z,2.50
2023-05-03T07:28:57.729Z,2.10
2023-05-03T07:33:00.704Z,2.17
2023-05-03T07:37:03.459Z,2.00
2023-05-03T07:41:07.763Z,1.60
2023-05-03T07:45:11.172Z,2.27
2023-05-03T07:49:13.795Z,2.00
2023-05-03T07:53:16.473Z,1.90
2023-05-03T07:57:23.202Z,2.07
2023-05-03T08:01:27.330Z,1.77
2023-05-03T08:05:30.323Z,2.00
2023-05-03T08:09:33.165Z,1.93
2023-05-03T08:13:37.140Z,2.47
2023-05-03T08:17:43.940Z,2.37
2023-05-03T08:21:47.806Z,1.93
2023-05-03T08:25:50.469Z,2.40
2023-05-03T08:29:54.644Z,2.47
2023-05-03T08:33:57.271Z,2.17
2023-05-03T08:37:59.955Z,2.30
2023-05-03T08:42:07.914Z,2.40
2023-05-03T08:46:13.521Z,2.50
2023-05-03T08:50:16.746Z,2.00
2023-05-03T08:54:21.200Z,2.63
2023-05-03T08:58:23.886Z,2.50
2023-05-03T09:02:28.181Z,2.70
2023-05-03T09:06:33.058Z,2.17
2023-05-03T09:10:40.613Z,3.03
2023-05-03T09:14:44.847Z,2.57
2023-05-03T09:19:00.962Z,2.23
2023-05-03T09:23:04.166Z,2.27
2023-05-03T09:27:19.316Z,2.43
2023-05-03T09:31:22.596Z,2.53
2023-05-03T09:35:27.008Z,2.53
2023-05-03T09:39:30.184Z,2.20
2023-05-03T09:43:33.390Z,2.37
2023-05-03T09:47:51.581Z,2.00
2023-05-03T09:51:56.382Z,2.43
2023-05-03T09:56:01.017Z,2.77
2023-05-03T10:00:05.766Z,2.30
2023-05-03T10:04:18.035Z,2.20
2023-05-03T10:08:33.982Z,2.40
2023-05-03T10:12:54.831Z,2.60
2023-05-03T10:17:02.024Z,3.13
2023-05-03T10:21:10.198Z,2.70
2023-05-03T10:25:15.882Z,2.80
2023-05-03T10:29:48.714Z,2.40
2023-05-03T10:33:51.648Z,2.83
2023-05-03T10:37:56.884Z,2.87
2023-05-03T10:42:04.829Z,2.60
2023-05-03T10:46:11.907Z,2.90
2023-05-03T10:50:29.582Z,2.50
2023-05-03T10:54:32.232Z,2.80
2023-05-03T10:58:38.632Z,2.60
2023-05-03T11:02:53.425Z,2.40
2023-05-03T11:06:56.822Z,2.63
2023-05-03T11:11:02.438Z,2.60
2023-05-03T11:15:07.372Z,2.73
2023-05-03T11:19:11.665Z,3.03
2023-05-03T11:23:14.681Z,2.87
2023-05-03T11:27:25.203Z,3.00
2023-05-03T11:31:29.412Z,2.83
2023-05-03T11:35:32.970Z,2.57
2023-05-03T11:39:37.332Z,3.33
2023-05-03T11:43:42.158Z,2.50
2023-05-03T11:47:46.298Z,3.10
2023-05-03T11:51:52.605Z,3.00
2023-05-03T11:55:56.688Z,3.33
2023-05-03T12:00:13.169Z,3.20
2023-05-03T12:04:18.144Z,2.97
2023-05-03T12:08:22.001Z,3.17
2023-05-03T12:12:30.461Z,3.10
2023-05-03T12:16:50.308Z,2.73
2023-05-03T12:25:04.874Z,3.53
2023-05-03T12:29:07.833Z,3.00
2023-05-03T12:33:11.700Z,3.00
2023-05-03T12:37:17.547Z,3.20
2023-05-03T12:41:51.961Z,3.30
2023-05-03T12:45:49.372Z,3.10
2023-05-03T12:49:59.641Z,3.20
2023-05-03T12:54:10.032Z,2.77
2023-05-03T12:58:43.197Z,2.77
2023-05-03T13:06:43.782Z,2.97
2023-05-03T13:10:49.340Z,2.97
2023-05-03T13:14:53.761Z,2.70
2023-05-03T13:18:56.838Z,2.90
2023-05-03T13:23:00.124Z,2.63
2023-05-03T13:27:04.708Z,2.60
2023-05-03T13:31:07.359Z,2.87
2023-05-03T13:35:11.007Z,2.80
2023-05-03T13:39:13.800Z,3.20
2023-05-03T13:43:17.819Z,2.70
2023-05-03T13:47:20.791Z,2.90
2023-05-03T13:51:25.900Z,2.83
2023-05-03T13:55:29.626Z,3.17
2023-05-03T13:59:33.598Z,3.10
2023-05-03T14:03:36.684Z,3.23
2023-05-03T14:07:39.414Z,3.07
2023-05-03T14:11:42.418Z,3.80
2023-05-03T14:15:46.655Z,3.47
2023-05-03T14:19:49.458Z,3.17
2023-05-03T14:23:52.926Z,3.27
2023-05-03T14:27:56.563Z,3.43
2023-05-03T14:32:01.036Z,3.73
2023-05-03T14:36:04.431Z,3.30
2023-05-03T14:40:08.889Z,3.33
2023-05-03T14:44:11.824Z,4.00
2023-05-03T14:48:16.423Z,3.80
2023-05-03T14:52:19.099Z,3.50
2023-05-03T14:56:21.792Z,3.63
2023-05-03T15:00:25.705Z,3.90
2023-05-03T15:04:30.796Z,4.10
2023-05-03T15:08:33.497Z,4.07
2023-05-03T15:12:36.408Z,3.93
2023-05-03T15:16:39.480Z,5.07
2023-05-03T15:20:43.808Z,4.10
2023-05-03T15:24:46.918Z,3.73
2023-05-03T15:28:49.582Z,4.07
2023-05-03T15:32:52.324Z,4.63
2023-05-03T15:36:56.406Z,4.57
2023-05-03T15:40:59.027Z,4.37
2023-05-03T15:45:01.744Z,4.33
2023-05-03T15:49:05.196Z,4.23
2023-05-03T15:53:09.233Z,4.30
2023-05-03T15:57:12.074Z,4.63
2023-05-03T16:01:14.740Z,5.23
2023-05-03T16:05:18.212Z,4.80
2023-05-03T16:09:23.357Z,5.33
2023-05-03T16:13:26.189Z,5.27
2023-05-03T16:17:28.944Z,5.37
2023-05-03T16:21:32.401Z,5.23
2023-05-03T16:25:36.539Z,4.70
2023-05-03T16:29:39.606Z,5.80
2023-05-03T16:33:42.311Z,5.57
2023-05-03T16:37:44.967Z,6.23
2023-05-03T16:41:49.069Z,7.57
2023-05-03T16:45:58.512Z,6.20
2023-05-03T16:50:01.234Z,6.90
2023-05-03T16:54:05.282Z,20.47
2023-05-03T16:58:09.290Z,19.63
2023-05-03T17:02:12.051Z,7.63
2023-05-03T17:06:16.018Z,10.53
2023-05-03T17:10:19.453Z,7.30
2023-05-03T17:14:23.568Z,9.57
2023-05-03T17:18:26.221Z,13.10
2023-05-03T17:22:29.034Z,12.30
2023-05-03T17:26:32.775Z,11.10
2023-05-03T17:30:36.781Z,9.43
2023-05-03T17:34:39.442Z,13.23
2023-05-03T17:38:42.646Z,7.07
2023-05-03T17:42:46.766Z,7.03
2023-05-03T17:46:51.515Z,9.23
2023-05-03T17:51:03.043Z,7.73
2023-05-03T17:55:06.687Z,6.37
2023-05-03T17:59:09.471Z,10.43
2023-05-03T18:03:14.415Z,15.30
2023-05-03T18:07:17.250Z,15.93
2023-05-03T18:11:20.579Z,16.13
2023-05-03T18:15:23.550Z,12.83
2023-05-03T18:19:28.225Z,22.93
2023-05-03T18:23:32.697Z,20.43
2023-05-03T18:27:37.447Z,14.73
2023-05-03T18:31:46.922Z,21.00
2023-05-03T18:35:52.443Z,17.13
2023-05-03T18:39:56.759Z,16.37
2023-05-03T18:44:05.431Z,26.50
2023-05-03T18:48:08.822Z,23.23
2023-05-03T18:52:13.540Z,19.50
2023-05-03T18:56:16.471Z,25.47
2023-05-03T19:00:20.127Z,26.63
2023-05-03T19:04:24.165Z,29.47
2023-05-03T19:08:30.272Z,28.10
2023-05-03T19:12:33.239Z,18.50
2023-05-03T19:16:37.729Z,14.57
2023-05-03T19:20:41.515Z,11.30
2023-05-03T19:24:46.863Z,9.40
2023-05-03T19:28:49.946Z,8.53
2023-05-03T19:32:53.024Z,8.17
2023-05-03T19:36:55.848Z,10.53
2023-05-03T19:41:00.906Z,10.00
2023-05-03T19:45:04.094Z,8.60
2023-05-03T19:49:07.438Z,8.10
2023-05-03T19:53:20.258Z,9.03
2023-05-03T19:57:24.852Z,8.27
2023-05-03T20:01:29.089Z,9.93
2023-05-03T20:05:39.329Z,10.13
2023-05-03T20:09:42.391Z,10.33
2023-05-03T20:13:49.228Z,12.70
2023-05-03T20:17:54.287Z,18.60
2023-05-03T20:21:57.462Z,17.10
2023-05-03T20:26:01.500Z,16.03
2023-05-03T20:30:29.008Z,16.50
2023-05-03T20:34:31.940Z,16.70
2023-05-03T20:38:34.651Z,17.40
2023-05-03T20:42:37.352Z,17.63
2023-05-03T20:46:41.703Z,17.87
2023-05-03T20:50:44.589Z,16.90
2023-05-03T20:54:47.577Z,19.10
2023-05-03T20:58:50.625Z,17.90
2023-05-03T21:02:55.185Z,18.07
2023-05-03T21:06:58.368Z,18.93
2023-05-03T21:11:01.066Z,18.63
2023-05-03T21:15:04.129Z,17.47
2023-05-03T21:19:08.487Z,16.73
2023-05-03T21:23:11.687Z,16.37
2023-05-03T21:27:15.248Z,15.60
2023-05-03T21:31:18.503Z,15.87
2023-05-03T21:35:22.870Z,14.83
2023-05-03T21:39:25.602Z,13.73
2023-05-03T21:43:28.270Z,13.40
2023-05-03T21:47:31.310Z,11.50
2023-05-03T21:51:35.515Z,12.03
2023-05-03T21:55:38.185Z,11.10
2023-05-03T21:59:42.942Z,10.47
2023-05-03T22:03:45.680Z,9.87
2023-05-03T22:07:51.163Z,9.53
2023-05-03T22:11:53.880Z,9.63
2023-05-03T22:15:56.663Z,9.13
2023-05-03T22:19:59.668Z,9.33
2023-05-03T22:24:04.361Z,9.73
2023-05-03T22:28:07.061Z,9.83
2023-05-03T22:32:09.756Z,9.97
2023-05-03T22:36:14.480Z,10.73
2023-05-03T22:40:19.129Z,9.70
2023-05-03T22:44:21.824Z,9.90
2023-05-03T22:48:29.629Z,9.50
2023-05-03T22:52:32.803Z,9.47
2023-05-03T22:56:37.485Z,9.73
2023-05-03T23:00:40.840Z,10.43
2023-05-03T23:04:43.446Z,9.50
2023-05-03T23:08:46.091Z,9.70
2023-05-03T23:12:50.304Z,9.63
2023-05-03T23:16:53.145Z,9.27
2023-05-03T23:21:00.946Z,10.07
2023-05-03T23:25:03.993Z,9.03
2023-05-03T23:29:08.241Z,9.37
2023-05-03T23:33:19.123Z,9.30
2023-05-03T23:37:22.694Z,9.47
2023-05-03T23:41:34.178Z,9.43
2023-05-03T23:45:38.605Z,9.37
2023-05-03T23:49:41.297Z,9.60
2023-05-03T23:53:43.948Z,9.23
2023-05-03T23:57:46.890Z,9.13
